Time;durP1;ratioP1;P1;durP2;ratioP2;P2;SDS_P1;SDS_P2;PMS_P1;PMS_P2;Temp;Humidity;BMP_temperature;BMP_pressure;BME280_temperature;BME280_humidity;BME280_pressure;Samples;Min_cycle;Max_cycle;Signal;HPM_P1;HPM_P2
2021/05/11 00:01:09;;;;;;;15.15;11.73;;;;;;;;;;4991558;28;20029;-59
2021/05/11 00:03:35;;;;;;;12.55;9.18;;;;;;;;;;4991083;28;20444;-59
2021/05/11 00:06:02;;;;;;;12.52;8.90;;;;;;;;;;4993071;28;20053;-58
2021/05/11 00:08:28;;;;;;;9.57;7.57;;;;;;;;;;4992799;28;20355;-59
2021/05/11 00:10:54;;;;;;;10.32;6.43;;;;;;;;;;4992461;28;20030;-58
2021/05/11 00:13:21;;;;;;;7.97;6.47;;;;;;;;;;4992890;28;20116;-59
2021/05/11 00:15:47;;;;;;;7.00;5.85;;;;;;;;;;4991035;28;20023;-59
2021/05/11 00:18:14;;;;;;;10.88;5.20;;;;;;;;;;4992109;28;20027;-57
2021/05/11 00:20:40;;;;;;;6.70;4.72;;;;;;;;;;4992722;28;20052;-58
2021/05/11 00:23:06;;;;;;;7.15;4.68;;;;;;;;;;4991212;28;20033;-60
2021/05/11 00:25:32;;;;;;;6.72;4.32;;;;;;;;;;4992310;28;20065;-59
2021/05/11 00:27:58;;;;;;;6.85;4.53;;;;;;;;;;4992819;28;20061;-59
2021/05/11 00:30:25;;;;;;;8.60;4.30;;;;;;;;;;4989512;28;20033;-59
2021/05/11 00:32:51;;;;;;;5.68;3.92;;;;;;;;;;4989627;28;20385;-59
2021/05/11 00:35:17;;;;;;;5.10;3.95;;;;;;;;;;4992605;28;20070;-59
2021/05/11 00:37:43;;;;;;;5.50;4.15;;;;;;;;;;4991888;28;20023;-59
2021/05/11 00:40:10;;;;;;;9.43;4.50;;;;;;;;;;4991784;28;20069;-58
2021/05/11 00:42:36;;;;;;;5.53;3.97;;;;;;;;;;4990479;28;20050;-58
2021/05/11 00:45:04;;;;;;;5.38;4.13;;;;;;;;;;4992023;28;20026;-60
2021/05/11 00:47:30;;;;;;;5.60;3.67;;;;;;;;;;4991739;28;20030;-60
2021/05/11 00:49:56;;;;;;;5.47;3.47;;;;;;;;;;4988860;28;20027;-59
2021/05/11 00:52:22;;;;;;;11.07;4.22;;;;;;;;;;4992427;28;20060;-59
2021/05/11 00:54:49;;;;;;;4.45;3.45;;;;;;;;;;4989907;28;20027;-59
2021/05/11 00:57:15;;;;;;;4.50;3.83;;;;;;;;;;4991019;28;20027;-59
2021/05/11 00:59:42;;;;;;;8.15;3.80;;;;;;;;;;4990360;28;20061;-59
2021/05/11 01:02:09;;;;;;;6.05;4.13;;;;;;;;;;4992336;28;20563;-59
2021/05/11 01:04:36;;;;;;;5.32;3.85;;;;;;;;;;4991861;28;20088;-59
2021/05/11 01:07:02;;;;;;;8.05;4.35;;;;;;;;;;4992415;28;20149;-59
2021/05/11 01:09:28;;;;;;;7.07;3.67;;;;;;;;;;4991705;28;20030;-59
2021/05/11 01:11:55;;;;;;;5.30;4.22;;;;;;;;;;4990881;28;20064;-59
2021/05/11 01:14:22;;;;;;;5.72;4.03;;;;;;;;;;4991735;28;20041;-59
2021/05/11 01:16:54;;;;;;;6.03;3.85;;;;;;;;;;4991027;28;20033;-59
2021/05/11 01:19:25;;;;;;;5.47;4.00;;;;;;;;;;4992071;28;20482;-59
2021/05/11 01:46:53;;;;;;;6.25;5.43;;;;;;;;;;4984874;28;20030;-59
2021/05/11 01:50:10;;;;;;;5.85;5.25;;;;;;;;;;4991082;28;20077;-59
2021/05/11 02:24:04;;;;;;;7.93;5.35;;;;;;;;;;4994756;28;20168;-58
2021/05/11 02:26:30;;;;;;;6.30;5.03;;;;;;;;;;4994304;28;20092;-58
2021/05/11 02:28:56;;;;;;;6.65;5.32;;;;;;;;;;4992715;28;20019;-59
2021/05/11 02:31:22;;;;;;;7.10;4.65;;;;;;;;;;4992666;28;20063;-57
2021/05/11 02:33:48;;;;;;;9.63;5.47;;;;;;;;;;4994361;28;20064;-58
2021/05/11 02:36:14;;;;;;;6.97;5.00;;;;;;;;;;4992270;28;20397;-59
2021/05/11 02:38:40;;;;;;;10.10;5.35;;;;;;;;;;4994354;28;20033;-58
2021/05/11 02:41:07;;;;;;;8.85;5.65;;;;;;;;;;4992290;28;20583;-58
2021/05/11 02:43:36;;;;;;;8.13;5.20;;;;;;;;;;4994701;28;20034;-58
2021/05/11 02:46:02;;;;;;;8.70;6.30;;;;;;;;;;4993912;28;20050;-59
2021/05/11 02:48:29;;;;;;;7.47;5.40;;;;;;;;;;4994039;28;20105;-60
2021/05/11 02:50:55;;;;;;;8.30;5.40;;;;;;;;;;4994544;28;20081;-59
2021/05/11 02:53:21;;;;;;;7.93;5.72;;;;;;;;;;4993716;28;20026;-60
2021/05/11 02:55:48;;;;;;;8.07;6.10;;;;;;;;;;4991765;28;20072;-59
2021/05/11 02:58:14;;;;;;;9.07;6.65;;;;;;;;;;4993558;28;20065;-59
2021/05/11 03:00:42;;;;;;;8.25;6.57;;;;;;;;;;4992461;28;20045;-59
2021/05/11 03:03:08;;;;;;;6.85;5.72;;;;;;;;;;4993987;28;20054;-59
2021/05/11 03:05:34;;;;;;;7.78;6.22;;;;;;;;;;4992658;28;20030;-59
2021/05/11 03:08:00;;;;;;;7.63;6.32;;;;;;;;;;4993848;28;20045;-60
2021/05/11 03:10:27;;;;;;;8.63;6.50;;;;;;;;;;4992026;28;20033;-60
2021/05/11 03:12:53;;;;;;;9.25;7.25;;;;;;;;;;4992541;28;20512;-60
2021/05/11 03:15:19;;;;;;;9.75;6.55;;;;;;;;;;4991460;28;20053;-59
2021/05/11 03:17:45;;;;;;;7.95;6.35;;;;;;;;;;4992274;28;20037;-59
2021/05/11 03:20:12;;;;;;;10.45;6.82;;;;;;;;;;4992080;28;20081;-58
2021/05/11 03:22:38;;;;;;;8.68;7.60;;;;;;;;;;4993425;28;20060;-62
2021/05/11 03:25:05;;;;;;;11.00;8.18;;;;;;;;;;4993381;28;20011;-58
2021/05/11 03:27:31;;;;;;;10.50;7.72;;;;;;;;;;4993006;28;20066;-59
2021/05/11 03:29:57;;;;;;;13.32;8.55;;;;;;;;;;4993234;28;20108;-58
2021/05/11 03:32:23;;;;;;;10.68;8.38;;;;;;;;;;4993341;28;20428;-58
2021/05/11 03:34:50;;;;;;;12.98;9.68;;;;;;;;;;4992175;28;20030;-59
2021/05/11 03:37:16;;;;;;;11.07;9.15;;;;;;;;;;4991823;28;20030;-58
2021/05/11 03:39:43;;;;;;;13.60;9.45;;;;;;;;;;4992515;28;20489;-58
2021/05/11 03:42:16;;;;;;;11.00;8.75;;;;;;;;;;4993174;28;20035;-58
2021/05/11 03:44:47;;;;;;;12.20;9.77;;;;;;;;;;4993319;28;20035;-58
2021/05/11 03:47:16;;;;;;;11.48;10.15;;;;;;;;;;4991740;28;20098;-59
2021/05/11 03:49:42;;;;;;;12.45;9.77;;;;;;;;;;4991505;28;20034;-58
2021/05/11 03:52:08;;;;;;;10.82;9.13;;;;;;;;;;4993417;28;20042;-59
2021/05/11 03:54:35;;;;;;;11.70;9.55;;;;;;;;;;4992718;28;20500;-59
2021/05/11 03:57:01;;;;;;;11.73;9.27;;;;;;;;;;4992692;28;20065;-59
2021/05/11 03:59:27;;;;;;;12.07;10.10;;;;;;;;;;4992754;28;20030;-59
2021/05/11 04:01:54;;;;;;;13.95;9.65;;;;;;;;;;4991495;28;20045;-60
2021/05/11 04:04:20;;;;;;;11.07;9.32;;;;;;;;;;4991048;28;20383;-59
2021/05/11 04:06:47;;;;;;;11.20;9.32;;;;;;;;;;4992477;28;20186;-59
2021/05/11 04:09:35;;;;;;;10.48;9.20;;;;;;;;;;4993033;28;20030;-59
2021/05/11 04:17:12;;;;;;;13.02;10.25;;;;;;;;;;4992349;28;20163;-58
2021/05/11 04:19:39;;;;;;;17.90;11.00;;;;;;;;;;4992731;28;20023;-58
2021/05/11 04:22:05;;;;;;;11.50;9.77;;;;;;;;;;4992430;28;20048;-59
2021/05/11 04:24:31;;;;;;;11.48;9.27;;;;;;;;;;4991413;28;20470;-59
2021/05/11 04:26:57;;;;;;;11.88;10.10;;;;;;;;;;4992431;28;20023;-59
2021/05/11 04:29:23;;;;;;;13.05;10.18;;;;;;;;;;4992995;28;20029;-59
2021/05/11 04:31:50;;;;;;;10.93;9.82;;;;;;;;;;4992716;28;20037;-58
2021/05/11 04:34:16;;;;;;;15.25;10.63;;;;;;;;;;4990062;28;20033;-60
2021/05/11 04:36:42;;;;;;;12.35;9.80;;;;;;;;;;4990775;28;20057;-59
2021/05/11 04:39:08;;;;;;;15.73;10.65;;;;;;;;;;4992476;28;20031;-58
2021/05/11 04:41:34;;;;;;;11.75;9.75;;;;;;;;;;4991573;28;20046;-58
2021/05/11 04:44:03;;;;;;;11.85;10.52;;;;;;;;;;4992833;28;20161;-59
2021/05/11 04:46:40;;;;;;;12.30;11.00;;;;;;;;;;4992204;28;20033;-59
2021/05/11 04:49:07;;;;;;;11.90;10.35;;;;;;;;;;4991696;28;20120;-59
2021/05/11 04:51:33;;;;;;;12.38;10.20;;;;;;;;;;4973451;28;20094;-60
2021/05/11 04:53:59;;;;;;;11.95;9.95;;;;;;;;;;4987080;28;20068;-58
2021/05/11 04:56:25;;;;;;;15.00;10.65;;;;;;;;;;4989977;28;20041;-59
2021/05/11 04:58:51;;;;;;;14.20;10.63;;;;;;;;;;4990651;28;20124;-59
2021/05/11 05:01:18;;;;;;;14.88;9.90;;;;;;;;;;4991531;28;20030;-59
2021/05/11 05:03:47;;;;;;;16.92;12.18;;;;;;;;;;4990671;28;20030;-58
2021/05/11 05:06:14;;;;;;;14.18;10.57;;;;;;;;;;4992243;28;20061;-58
2021/05/11 05:08:40;;;;;;;15.65;11.38;;;;;;;;;;4990977;28;20389;-59
2021/05/11 05:11:06;;;;;;;12.40;10.32;;;;;;;;;;4992026;28;20081;-59
2021/05/11 05:13:32;;;;;;;12.30;11.00;;;;;;;;;;4978120;28;20357;-58
2021/05/11 05:15:59;;;;;;;12.23;10.98;;;;;;;;;;4992644;28;20097;-59
2021/05/11 05:18:29;;;;;;;13.65;11.73;;;;;;;;;;4990761;28;20119;-59
2021/05/11 05:20:56;;;;;;;12.57;10.63;;;;;;;;;;4992487;28;20097;-60
2021/05/11 05:23:29;;;;;;;12.88;9.95;;;;;;;;;;4991952;28;20485;-60
2021/05/11 05:26:17;;;;;;;12.15;10.38;;;;;;;;;;4994828;28;20030;-59
2021/05/11 05:28:43;;;;;;;12.98;10.50;;;;;;;;;;4986362;28;20038;-60
2021/05/11 05:31:10;;;;;;;11.75;9.80;;;;;;;;;;4996340;28;20029;-59
2021/05/11 05:33:37;;;;;;;11.45;9.55;;;;;;;;;;4992735;28;20031;-60
2021/05/11 05:36:04;;;;;;;12.43;9.52;;;;;;;;;;4995801;28;20034;-60
2021/05/11 05:38:31;;;;;;;12.57;9.00;;;;;;;;;;4994169;28;20026;-58
2021/05/11 05:41:08;;;;;;;13.68;10.35;;;;;;;;;;4996016;28;20326;-60
2021/05/11 05:43:34;;;;;;;10.10;8.88;;;;;;;;;;4993700;28;20022;-60
2021/05/11 05:46:00;;;;;;;11.02;9.40;;;;;;;;;;4995072;28;20022;-60
2021/05/11 05:48:26;;;;;;;12.82;9.45;;;;;;;;;;4993401;28;20481;-59
2021/05/11 05:50:58;;;;;;;11.52;9.60;;;;;;;;;;4995283;28;20041;-60
2021/05/11 05:53:34;;;;;;;12.30;9.55;;;;;;;;;;4995166;28;21408;-59
2021/05/11 05:56:00;;;;;;;12.02;9.18;;;;;;;;;;4995001;28;20069;-59
2021/05/11 05:58:26;;;;;;;10.80;9.60;;;;;;;;;;4994968;28;20027;-59
2021/05/11 06:00:57;;;;;;;12.00;10.38;;;;;;;;;;4994619;28;20026;-59
2021/05/11 06:03:49;;;;;;;10.90;9.70;;;;;;;;;;4994791;28;20181;-58
2021/05/11 06:06:16;;;;;;;11.43;9.13;;;;;;;;;;4995121;28;20034;-58
2021/05/11 06:08:43;;;;;;;12.77;10.25;;;;;;;;;;4993745;28;20018;-59
2021/05/11 06:11:27;;;;;;;11.10;9.57;;;;;;;;;;4994932;28;20030;-60
2021/05/11 06:14:10;;;;;;;14.70;10.25;;;;;;;;;;4994017;28;20034;-58
2021/05/11 06:19:21;;;;;;;15.50;10.63;;;;;;;;;;4995242;28;20097;-60
2021/05/11 06:21:48;;;;;;;11.82;9.60;;;;;;;;;;4994307;28;20105;-59
2021/05/11 06:24:15;;;;;;;13.25;9.35;;;;;;;;;;4995023;28;20156;-59
2021/05/11 06:26:41;;;;;;;10.40;8.82;;;;;;;;;;4994299;28;20030;-59
2021/05/11 06:29:09;;;;;;;11.65;9.63;;;;;;;;;;4994860;28;20542;-59
2021/05/11 06:31:35;;;;;;;10.23;9.07;;;;;;;;;;4987185;28;20034;-59
2021/05/11 06:34:03;;;;;;;11.02;9.90;;;;;;;;;;4994910;28;20180;-62
2021/05/11 06:36:29;;;;;;;12.50;9.48;;;;;;;;;;4993268;28;20049;-59
2021/05/11 06:38:55;;;;;;;13.90;9.80;;;;;;;;;;4994610;28;20023;-58
2021/05/11 06:41:22;;;;;;;11.52;9.60;;;;;;;;;;4993765;28;20567;-60
2021/05/11 06:43:54;;;;;;;11.85;9.57;;;;;;;;;;4994463;28;20033;-60
2021/05/11 06:54:11;;;;;;;11.70;9.20;;;;;;;;;;4995798;28;20038;-58
2021/05/11 06:56:43;;;;;;;9.15;8.02;;;;;;;;;;4973294;28;20046;-59
2021/05/11 06:59:09;;;;;;;12.27;9.32;;;;;;;;;;4982155;28;20061;-58
2021/05/11 07:01:35;;;;;;;12.13;8.73;;;;;;;;;;4978712;28;20026;-59
2021/05/11 07:04:02;;;;;;;11.73;8.85;;;;;;;;;;4980524;28;20061;-58
2021/05/11 07:06:28;;;;;;;11.40;8.75;;;;;;;;;;4974112;28;20463;-58
2021/05/11 07:08:59;;;;;;;11.35;8.90;;;;;;;;;;4979114;28;20034;-59
2021/05/11 07:13:08;;;;;;;10.65;8.88;;;;;;;;;;4987408;28;20506;-58
2021/05/11 07:14:17;;;;;;;13.02;9.88;;;;;;;;;;4982548;28;20034;-59
2021/05/11 07:16:43;;;;;;;11.80;9.57;;;;;;;;;;4979314;28;20693;-60
2021/05/11 07:19:09;;;;;;;11.10;9.18;;;;;;;;;;4981997;28;20632;-57
2021/05/11 07:21:35;;;;;;;12.25;9.20;;;;;;;;;;4985974;28;20080;-58
2021/05/11 07:24:04;;;;;;;12.02;9.63;;;;;;;;;;4982353;28;20023;-57
2021/05/11 07:26:30;;;;;;;10.77;9.60;;;;;;;;;;4976708;28;20085;-57
2021/05/11 07:29:09;;;;;;;11.95;9.65;;;;;;;;;;4995337;28;20121;-57
2021/05/11 07:31:36;;;;;;;12.60;10.32;;;;;;;;;;4980880;28;20054;-57
2021/05/11 07:34:04;;;;;;;14.55;10.52;;;;;;;;;;4979599;28;20034;-58
2021/05/11 07:36:30;;;;;;;11.27;9.95;;;;;;;;;;4978881;28;20030;-58
2021/05/11 07:38:56;;;;;;;16.25;11.27;;;;;;;;;;4991134;28;20058;-59
2021/05/11 07:41:23;;;;;;;13.07;10.90;;;;;;;;;;5000333;28;20054;-59
2021/05/11 07:43:56;;;;;;;12.05;9.93;;;;;;;;;;4991162;28;20038;-57
2021/05/11 07:46:46;;;;;;;13.07;11.20;;;;;;;;;;4986826;28;20449;-60
2021/05/11 08:10:37;;;;;;;10.32;9.10;;;;;;;;;;4991878;28;20044;-58
2021/05/11 08:15:52;;;;;;;10.30;8.75;;;;;;;;;;4991983;28;20049;-58
2021/05/11 08:18:27;;;;;;;11.52;9.13;;;;;;;;;;4991026;28;20032;-59
2021/05/11 08:29:15;;;;;;;9.20;8.27;;;;;;;;;;4988712;28;20049;-58
2021/05/11 08:31:43;;;;;;;11.20;9.45;;;;;;;;;;4992337;28;20097;-58
2021/05/11 08:34:09;;;;;;;10.25;8.60;;;;;;;;;;4992024;28;20034;-59
2021/05/11 08:36:35;;;;;;;12.38;9.93;;;;;;;;;;4989391;28;20049;-59
2021/05/11 08:39:02;;;;;;;13.30;9.80;;;;;;;;;;4991387;28;20026;-58
2021/05/11 08:41:28;;;;;;;12.95;10.32;;;;;;;;;;4991221;28;20065;-58
2021/05/11 08:43:54;;;;;;;13.90;11.15;;;;;;;;;;4990738;28;20030;-59
2021/05/11 08:46:20;;;;;;;14.55;9.90;;;;;;;;;;4990066;28;20038;-58
2021/05/11 08:48:48;;;;;;;14.38;10.48;;;;;;;;;;4991202;28;20386;-58
2021/05/11 08:51:25;;;;;;;10.73;8.73;;;;;;;;;;4991532;28;20123;-57
2021/05/11 09:16:07;;;;;;;10.38;8.18;;;;;;;;;;4992349;28;20280;-58
2021/05/11 09:24:19;;;;;;;9.15;8.10;;;;;;;;;;4992631;28;20118;-58
2021/05/11 09:26:55;;;;;;;9.10;8.20;;;;;;;;;;4991697;28;20028;-62
2021/05/11 09:50:54;;;;;;;10.32;9.30;;;;;;;;;;4990860;28;20442;-58
2021/05/11 09:52:27;;;;;;;10.75;8.80;;;;;;;;;;4994917;28;20033;-59
2021/05/11 09:54:37;;;;;;;11.82;9.10;;;;;;;;;;4982237;28;20042;-58
2021/05/11 10:46:53;;;;;;;8.23;7.53;;;;;;;;;;4986816;28;20112;-58
2021/05/11 10:49:24;;;;;;;9.35;7.80;;;;;;;;;;4988435;28;20038;-58
2021/05/11 10:52:18;;;;;;;8.40;7.43;;;;;;;;;;4990409;28;20026;-60
2021/05/11 11:00:44;;;;;;;8.93;7.10;;;;;;;;;;4990940;28;20030;-59
2021/05/11 11:03:07;;;;;;;8.27;7.47;;;;;;;;;;4991521;28;20038;-58
2021/05/11 11:05:57;;;;;;;9.18;8.15;;;;;;;;;;4991391;28;20042;-58
2021/05/11 11:08:27;;;;;;;9.18;7.10;;;;;;;;;;4982328;28;20062;-58
2021/05/11 11:11:02;;;;;;;8.93;7.78;;;;;;;;;;4993039;28;20192;-58
2021/05/11 11:13:29;;;;;;;9.57;8.57;;;;;;;;;;4992780;28;20094;-58
2021/05/11 11:15:59;;;;;;;9.88;8.40;;;;;;;;;;4992242;28;20062;-58
2021/05/11 11:18:25;;;;;;;10.23;8.48;;;;;;;;;;4992296;28;20053;-59
2021/05/11 11:21:07;;;;;;;9.10;8.02;;;;;;;;;;4992435;28;20018;-59
2021/05/11 11:24:08;;;;;;;9.20;8.20;;;;;;;;;;4992430;28;20104;-58
2021/05/11 11:26:42;;;;;;;10.48;9.02;;;;;;;;;;4970799;28;20082;-59
2021/05/11 11:29:09;;;;;;;9.32;8.32;;;;;;;;;;4954988;28;20410;-59
2021/05/11 11:31:45;;;;;;;11.82;8.30;;;;;;;;;;4949612;28;20030;-59
2021/05/11 11:34:17;;;;;;;10.00;8.48;;;;;;;;;;4960387;28;20047;-58
2021/05/11 11:36:47;;;;;;;12.55;8.38;;;;;;;;;;4951822;28;20027;-57
2021/05/11 11:39:17;;;;;;;9.70;8.18;;;;;;;;;;4943627;28;20050;-59
2021/05/11 11:41:43;;;;;;;8.63;6.85;;;;;;;;;;4953340;28;20130;-58
2021/05/11 11:44:14;;;;;;;7.25;6.60;;;;;;;;;;4971307;28;20026;-59
2021/05/11 11:46:40;;;;;;;7.18;6.47;;;;;;;;;;4945691;29;20031;-59
2021/05/11 11:49:11;;;;;;;7.80;7.00;;;;;;;;;;4964501;28;20093;-59
2021/05/11 11:51:38;;;;;;;9.25;7.20;;;;;;;;;;4960578;28;20053;-59
2021/05/11 11:59:24;;;;;;;7.72;7.00;;;;;;;;;;4968378;28;20414;-58
2021/05/11 12:02:04;;;;;;;8.68;7.28;;;;;;;;;;4989326;28;20030;-59
2021/05/11 12:04:31;;;;;;;9.32;7.20;;;;;;;;;;4990397;28;20031;-59
2021/05/11 12:07:05;;;;;;;7.93;7.13;;;;;;;;;;4985707;28;20113;-59
2021/05/11 12:09:31;;;;;;;8.25;6.65;;;;;;;;;;4998215;28;20082;-59
2021/05/11 12:12:00;;;;;;;7.90;6.60;;;;;;;;;;4998672;28;20493;-59
2021/05/11 12:14:27;;;;;;;9.20;7.78;;;;;;;;;;4971794;28;20038;-58
2021/05/11 12:16:53;;;;;;;8.63;7.72;;;;;;;;;;4987840;28;20042;-59
2021/05/11 12:19:24;;;;;;;8.88;7.55;;;;;;;;;;5001122;28;20032;-59
2021/05/11 12:22:04;;;;;;;9.50;6.68;;;;;;;;;;4983399;28;20153;-59
2021/05/11 12:24:35;;;;;;;8.93;7.32;;;;;;;;;;4963286;28;20042;-58
2021/05/11 12:27:15;;;;;;;9.02;7.07;;;;;;;;;;4986268;28;20072;-58
2021/05/11 12:30:00;;;;;;;9.13;7.15;;;;;;;;;;4990469;28;20057;-59
2021/05/11 12:32:26;;;;;;;8.98;7.20;;;;;;;;;;4975810;28;20046;-59
2021/05/11 12:35:06;;;;;;;11.18;8.30;;;;;;;;;;4990098;28;20023;-59
2021/05/11 12:37:52;;;;;;;7.18;6.47;;;;;;;;;;4989488;28;20023;-59
2021/05/11 12:40:30;;;;;;;10.18;7.15;;;;;;;;;;4989554;28;20034;-60
2021/05/11 12:42:57;;;;;;;7.10;5.63;;;;;;;;;;4991880;28;20125;-59
2021/05/11 12:45:24;;;;;;;7.90;6.18;;;;;;;;;;4991868;28;20347;-60
2021/05/11 12:48:00;;;;;;;6.85;5.93;;;;;;;;;;4990884;28;20026;-59
2021/05/11 12:50:29;;;;;;;6.80;6.10;;;;;;;;;;4991742;28;20149;-59
2021/05/11 12:52:59;;;;;;;6.32;5.72;;;;;;;;;;4990690;28;20037;-59
2021/05/11 12:56:08;;;;;;;7.90;6.50;;;;;;;;;;4991286;28;20109;-59
2021/05/11 13:01:34;;;;;;;6.35;5.40;;;;;;;;;;4972713;28;20045;-59
2021/05/11 13:25:40;;;;;;;6.40;4.50;;;;;;;;;;4991100;28;20057;-59
2021/05/11 13:28:15;;;;;;;9.93;5.03;;;;;;;;;;4990720;28;20140;-58
2021/05/11 13:33:50;;;;;;;9.77;4.63;;;;;;;;;;4960039;28;20053;-59
2021/05/11 13:36:17;;;;;;;7.55;4.93;;;;;;;;;;4991591;28;20033;-59
2021/05/11 13:38:43;;;;;;;7.65;5.28;;;;;;;;;;4989819;28;20125;-59
2021/05/11 13:41:09;;;;;;;7.35;5.20;;;;;;;;;;4987793;28;20132;-58
2021/05/11 13:43:36;;;;;;;6.90;6.10;;;;;;;;;;4985699;28;20042;-59
2021/05/11 13:46:03;;;;;;;9.00;6.32;;;;;;;;;;4990506;28;20072;-58
2021/05/11 13:48:35;;;;;;;8.82;6.13;;;;;;;;;;4985836;28;20030;-58
2021/05/11 13:51:11;;;;;;;7.18;5.57;;;;;;;;;;4981715;28;20035;-58
2021/05/11 13:53:39;;;;;;;7.75;5.45;;;;;;;;;;4989883;28;20058;-58
2021/05/11 14:04:19;;;;;;;9.88;5.75;;;;;;;;;;4990959;28;20031;-59
2021/05/11 14:06:46;;;;;;;7.72;6.53;;;;;;;;;;4993248;28;20072;-59
2021/05/11 14:09:12;;;;;;;7.53;5.97;;;;;;;;;;4993763;28;20027;-59
2021/05/11 14:11:40;;;;;;;8.18;6.80;;;;;;;;;;4993950;28;20045;-60
2021/05/11 14:14:06;;;;;;;9.68;6.43;;;;;;;;;;4994174;28;20033;-58
2021/05/11 14:16:33;;;;;;;7.35;6.00;;;;;;;;;;4994355;28;20030;-58
2021/05/11 14:18:59;;;;;;;6.55;5.88;;;;;;;;;;4992863;28;20034;-58
2021/05/11 14:21:25;;;;;;;7.32;6.25;;;;;;;;;;4994662;28;20042;-58
2021/05/11 14:23:53;;;;;;;10.93;5.45;;;;;;;;;;4993967;28;20034;-58
2021/05/11 14:26:23;;;;;;;11.15;6.90;;;;;;;;;;4991962;28;20026;-58
2021/05/11 14:28:49;;;;;;;8.75;5.60;;;;;;;;;;4986650;28;20037;-59
2021/05/11 14:31:15;;;;;;;8.27;5.93;;;;;;;;;;4993030;28;20033;-58
2021/05/11 14:33:41;;;;;;;7.45;6.20;;;;;;;;;;4994088;28;20417;-58
2021/05/11 14:36:08;;;;;;;7.25;6.18;;;;;;;;;;4994222;28;20034;-58
2021/05/11 14:38:35;;;;;;;7.20;5.90;;;;;;;;;;4992884;28;20141;-60
2021/05/11 14:41:03;;;;;;;11.48;6.22;;;;;;;;;;4993248;28;20054;-59
2021/05/11 14:43:33;;;;;;;9.27;5.95;;;;;;;;;;4993425;28;20092;-60
2021/05/11 14:45:59;;;;;;;8.02;5.80;;;;;;;;;;4991823;28;20493;-58
2021/05/11 14:48:26;;;;;;;7.00;5.68;;;;;;;;;;4992330;28;20033;-58
2021/05/11 14:50:52;;;;;;;6.47;5.38;;;;;;;;;;4992431;28;20038;-58
2021/05/11 14:53:19;;;;;;;7.97;5.97;;;;;;;;;;4993375;28;20453;-59
2021/05/11 14:55:45;;;;;;;7.53;5.55;;;;;;;;;;4991577;28;20091;-58
2021/05/11 14:58:11;;;;;;;7.40;5.28;;;;;;;;;;4992193;28;20028;-58
2021/05/11 15:00:37;;;;;;;9.45;5.80;;;;;;;;;;4993482;28;20027;-58
2021/05/11 15:03:04;;;;;;;6.47;5.80;;;;;;;;;;4989887;28;20023;-59
2021/05/11 15:05:30;;;;;;;7.43;5.43;;;;;;;;;;4990345;28;20485;-60
2021/05/11 15:07:56;;;;;;;8.23;5.18;;;;;;;;;;4991088;28;20105;-58
2021/05/11 15:10:22;;;;;;;7.53;5.20;;;;;;;;;;4992907;28;20461;-58
2021/05/11 15:12:50;;;;;;;7.25;5.97;;;;;;;;;;4992236;28;20022;-58
2021/05/11 15:15:20;;;;;;;7.03;5.65;;;;;;;;;;4991493;28;20510;-58
2021/05/11 15:18:04;;;;;;;6.18;5.57;;;;;;;;;;4976828;28;20382;-59
2021/05/11 15:20:31;;;;;;;9.48;5.38;;;;;;;;;;4983467;28;20034;-59
2021/05/11 15:22:57;;;;;;;6.65;5.40;;;;;;;;;;4971345;28;20027;-59
2021/05/11 15:25:26;;;;;;;7.10;5.70;;;;;;;;;;4985718;28;20022;-59
2021/05/11 15:27:54;;;;;;;7.00;5.10;;;;;;;;;;4980801;28;20133;-60
2021/05/11 15:30:21;;;;;;;6.30;4.93;;;;;;;;;;4974099;28;20506;-58
2021/05/11 15:32:58;;;;;;;5.75;5.05;;;;;;;;;;4981072;28;20049;-58
2021/05/11 15:35:35;;;;;;;4.53;4.07;;;;;;;;;;4972754;28;20026;-60
2021/05/11 15:38:06;;;;;;;6.88;4.60;;;;;;;;;;4955883;28;20198;-60
2021/05/11 15:40:35;;;;;;;6.45;4.45;;;;;;;;;;4986346;28;20031;-59
2021/05/11 15:43:01;;;;;;;4.90;4.50;;;;;;;;;;4977936;28;20054;-59
2021/05/11 15:45:28;;;;;;;7.07;4.45;;;;;;;;;;4990523;28;20030;-60
2021/05/11 15:47:56;;;;;;;5.93;4.13;;;;;;;;;;4990739;28;20088;-58
2021/05/11 15:50:28;;;;;;;7.05;4.68;;;;;;;;;;4987621;28;20030;-59
2021/05/11 15:53:02;;;;;;;4.43;4.00;;;;;;;;;;4991003;28;20031;-58
2021/05/11 15:55:29;;;;;;;5.93;4.22;;;;;;;;;;4991736;28;20042;-59
2021/05/11 15:57:56;;;;;;;4.35;3.63;;;;;;;;;;4990279;28;20042;-59
2021/05/11 16:00:22;;;;;;;4.78;4.15;;;;;;;;;;4990540;28;20109;-59
2021/05/11 16:02:49;;;;;;;6.60;4.13;;;;;;;;;;4990444;28;20069;-59
2021/05/11 16:05:19;;;;;;;6.97;4.35;;;;;;;;;;4992861;28;20022;-57
2021/05/11 16:07:45;;;;;;;5.45;3.88;;;;;;;;;;4991228;28;20078;-59
2021/05/11 16:10:11;;;;;;;5.78;4.15;;;;;;;;;;4992095;28;20049;-59
2021/05/11 16:12:38;;;;;;;4.95;3.70;;;;;;;;;;4992268;28;20030;-58
2021/05/11 16:15:08;;;;;;;5.70;3.85;;;;;;;;;;4992276;28;20061;-58
2021/05/11 16:17:35;;;;;;;5.55;4.13;;;;;;;;;;4992101;28;20034;-59
2021/05/11 16:20:01;;;;;;;7.07;3.92;;;;;;;;;;4992103;28;20082;-58
2021/05/11 16:22:27;;;;;;;5.88;3.83;;;;;;;;;;4991864;28;20029;-58
2021/05/11 16:24:54;;;;;;;5.45;4.10;;;;;;;;;;4992281;28;20041;-59
2021/05/11 16:27:20;;;;;;;4.82;4.32;;;;;;;;;;4991523;28;20030;-59
2021/05/11 16:29:47;;;;;;;4.43;3.85;;;;;;;;;;4992468;28;20056;-57
2021/05/11 16:32:13;;;;;;;6.80;4.45;;;;;;;;;;4992153;28;20027;-59
2021/05/11 16:34:41;;;;;;;6.03;4.43;;;;;;;;;;4985962;28;20164;-59
2021/05/11 16:37:07;;;;;;;4.53;3.92;;;;;;;;;;4980103;28;20078;-58
2021/05/11 16:39:34;;;;;;;5.38;4.30;;;;;;;;;;4994157;28;20088;-58
2021/05/11 16:42:00;;;;;;;6.32;3.80;;;;;;;;;;4987870;28;20058;-59
2021/05/11 16:44:27;;;;;;;7.15;4.20;;;;;;;;;;4979305;28;20145;-59
2021/05/11 16:46:53;;;;;;;5.05;4.20;;;;;;;;;;4979529;28;20088;-58
2021/05/11 16:49:20;;;;;;;4.45;3.85;;;;;;;;;;4977913;28;20030;-59
2021/05/11 16:51:46;;;;;;;4.55;3.60;;;;;;;;;;4993945;28;20030;-59
2021/05/11 16:54:12;;;;;;;5.43;4.68;;;;;;;;;;4999653;28;20141;-60
2021/05/11 16:56:38;;;;;;;8.25;4.10;;;;;;;;;;4978182;28;20553;-57
2021/05/11 16:59:05;;;;;;;7.25;4.15;;;;;;;;;;4994892;28;20025;-57
2021/05/11 17:01:31;;;;;;;5.25;4.45;;;;;;;;;;4978797;28;20505;-57
2021/05/11 17:03:57;;;;;;;4.97;4.20;;;;;;;;;;4976161;28;20030;-59
2021/05/11 17:06:24;;;;;;;5.00;3.78;;;;;;;;;;4967664;28;20080;-59
2021/05/11 17:08:50;;;;;;;4.78;3.92;;;;;;;;;;4990371;28;20030;-58
2021/05/11 17:11:16;;;;;;;10.52;7.03;;;;;;;;;;4988371;28;20037;-57
2021/05/11 17:13:43;;;;;;;5.00;4.00;;;;;;;;;;4979227;28;20030;-56
2021/05/11 17:16:10;;;;;;;5.95;4.10;;;;;;;;;;4974825;28;20046;-58
2021/05/11 17:18:37;;;;;;;4.72;3.65;;;;;;;;;;4987711;28;20038;-57
2021/05/11 17:21:04;;;;;;;4.80;4.30;;;;;;;;;;4983800;28;20077;-58
2021/05/11 17:23:30;;;;;;;4.80;4.18;;;;;;;;;;4994482;28;20026;-59
2021/05/11 17:25:57;;;;;;;6.88;4.45;;;;;;;;;;4990855;28;20565;-58
2021/05/11 17:28:26;;;;;;;5.38;4.35;;;;;;;;;;4983611;28;20339;-60
2021/05/11 17:30:57;;;;;;;5.15;4.60;;;;;;;;;;4981876;28;20034;-60
2021/05/11 17:33:25;;;;;;;5.70;4.22;;;;;;;;;;4981770;28;20038;-60
2021/05/11 17:35:51;;;;;;;5.03;4.30;;;;;;;;;;4981748;28;20112;-60
2021/05/11 17:38:21;;;;;;;6.60;4.30;;;;;;;;;;4987630;28;20034;-60
2021/05/11 17:40:49;;;;;;;6.68;4.28;;;;;;;;;;4984298;28;20073;-61
2021/05/11 17:43:15;;;;;;;6.60;4.57;;;;;;;;;;4983152;28;20117;-59
2021/05/11 17:45:42;;;;;;;5.70;4.57;;;;;;;;;;4976725;28;20088;-56
2021/05/11 17:48:08;;;;;;;10.05;4.80;;;;;;;;;;4983826;28;20307;-59
2021/05/11 17:50:34;;;;;;;4.78;4.20;;;;;;;;;;4992234;28;20120;-58
2021/05/11 17:53:01;;;;;;;4.63;4.05;;;;;;;;;;4993674;28;20022;-59
2021/05/11 17:55:29;;;;;;;4.35;3.95;;;;;;;;;;4995371;28;20031;-58
2021/05/11 17:57:57;;;;;;;6.40;3.70;;;;;;;;;;4994093;28;20621;-59
2021/05/11 18:00:24;;;;;;;5.35;4.20;;;;;;;;;;4993343;28;20038;-58
2021/05/11 18:02:50;;;;;;;6.13;4.22;;;;;;;;;;4994918;28;20030;-59
2021/05/11 18:05:16;;;;;;;5.20;4.18;;;;;;;;;;4994357;28;20033;-58
2021/05/11 18:07:42;;;;;;;6.25;5.00;;;;;;;;;;4992965;28;20072;-58
2021/05/11 18:10:09;;;;;;;6.28;4.40;;;;;;;;;;4994675;28;20105;-58
2021/05/11 18:12:35;;;;;;;7.97;5.05;;;;;;;;;;4994803;28;20039;-58
2021/05/11 18:15:01;;;;;;;6.35;4.32;;;;;;;;;;4994402;28;20113;-59
2021/05/11 18:17:27;;;;;;;5.88;4.22;;;;;;;;;;4994098;28;20030;-59
2021/05/11 18:19:53;;;;;;;6.43;4.13;;;;;;;;;;4994659;28;20509;-59
2021/05/11 18:22:20;;;;;;;6.10;3.92;;;;;;;;;;4993431;28;20023;-59
2021/05/11 18:24:46;;;;;;;7.25;4.90;;;;;;;;;;4994482;28;20023;-59
2021/05/11 18:27:13;;;;;;;8.10;5.72;;;;;;;;;;4994636;28;20027;-59
2021/05/11 18:29:39;;;;;;;7.78;5.95;;;;;;;;;;4993870;28;20007;-60
2021/05/11 18:32:05;;;;;;;7.70;5.80;;;;;;;;;;4993037;28;20124;-58
2021/05/11 18:34:32;;;;;;;7.68;6.30;;;;;;;;;;4994660;28;20023;-59
2021/05/11 18:37:06;;;;;;;7.32;5.93;;;;;;;;;;4994030;28;20042;-59
2021/05/11 18:39:34;;;;;;;6.82;5.43;;;;;;;;;;4994326;28;20468;-59
2021/05/11 18:42:00;;;;;;;6.55;5.95;;;;;;;;;;4994388;28;20046;-57
2021/05/11 18:44:27;;;;;;;8.90;5.72;;;;;;;;;;4993962;28;20407;-58
2021/05/11 18:46:54;;;;;;;6.53;5.43;;;;;;;;;;4994433;28;20015;-58
2021/05/11 18:49:20;;;;;;;7.70;5.85;;;;;;;;;;4994044;28;20034;-58
2021/05/11 18:51:47;;;;;;;6.75;5.68;;;;;;;;;;4992882;28;20108;-58
2021/05/11 18:54:13;;;;;;;7.63;6.13;;;;;;;;;;4992665;28;20038;-57